Time;durP1;ratioP1;P1;durP2;ratioP2;P2;SDS_P1;SDS_P2;PMS_P1;PMS_P2;Temp;Humidity;BMP_temperature;BMP_pressure;BME280_temperature;BME280_humidity;BME280_pressure;Samples;Min_cycle;Max_cycle;Signal;HPM_P1;HPM_P2
2021/09/17 00:00:55;;;;;;;;;;;;;;;;;;6191158;28;20127;-75
2021/09/17 00:03:58;;;;;;;;;;;;;;;;;;6200672;28;20099;-76
2021/09/17 00:07:00;;;;;;;;;;;;;;;;;;6195254;28;20014;-75
2021/09/17 00:10:01;;;;;;;;;;;;;;;;;;6207924;28;20114;-75
2021/09/17 00:13:03;;;;;;;;;;;;;;;;;;6204337;28;20681;-75
2021/09/17 00:16:05;;;;;;;;;;;;;;;;;;6191469;28;20549;-78
2021/09/17 00:19:07;;;;;;;;;;;;;;;;;;6208528;28;20018;-75
2021/09/17 00:22:09;;;;;;;;;;;;;;;;;;6204466;28;20014;-76
2021/09/17 00:25:10;;;;;;;;;;;;;;;;;;6207947;28;20462;-77
2021/09/17 00:28:12;;;;;;;;;;;;;;;;;;6202296;28;20074;-75
2021/09/17 00:31:13;;;;;;;;;;;;;;;;;;6187997;28;20049;-75
2021/09/17 00:34:16;;;;;;;;;;;;;;;;;;6201059;28;20061;-75
2021/09/17 00:37:17;;;;;;;;;;;;;;;;;;6194842;28;20014;-77
2021/09/17 00:40:19;;;;;;;;;;;;;;;;;;6202273;28;20033;-78
2021/09/17 00:43:21;;;;;;;;;;;;;;;;;;6209662;28;20064;-75
2021/09/17 00:46:22;;;;;;;;;;;;;;;;;;6204692;28;20088;-77
2021/09/17 00:49:25;;;;;;;;;;;;;;;;;;6205530;28;20116;-75
2021/09/17 00:52:29;;;;;;;;;;;;;;;;;;6210009;28;20026;-75
2021/09/17 00:55:31;;;;;;;;;;;;;;;;;;6205012;28;20125;-78
2021/09/17 00:58:32;;;;;;;;;;;;;;;;;;6208199;28;20501;-75
2021/09/17 01:01:36;;;;;;;;;;;;;;;;;;6200748;28;20057;-77
2021/09/17 01:04:38;;;;;;;;;;;;;;;;;;6207978;28;20026;-75
2021/09/17 01:07:40;;;;;;;;;;;;;;;;;;6198230;28;20652;-75
2021/09/17 01:10:42;;;;;;;;;;;;;;;;;;6202043;28;20726;-74
2021/09/17 01:13:44;;;;;;;;;;;;;;;;;;6199997;28;20021;-75
2021/09/17 01:16:45;;;;;;;;;;;;;;;;;;6199821;28;20095;-75
2021/09/17 01:19:48;;;;;;;;;;;;;;;;;;6204035;28;20108;-74
2021/09/17 01:22:51;;;;;;;;;;;;;;;;;;6194701;28;20089;-74
2021/09/17 01:25:53;;;;;;;;;;;;;;;;;;6197260;28;20423;-76
2021/09/17 01:28:54;;;;;;;;;;;;;;;;;;6204948;28;20021;-74
2021/09/17 01:31:55;;;;;;;;;;;;;;;;;;6199763;28;20057;-76
2021/09/17 01:34:57;;;;;;;;;;;;;;;;;;6209459;28;20107;-77
2021/09/17 01:38:00;;;;;;;;;;;;;;;;;;6202126;28;20010;-75
2021/09/17 01:41:01;;;;;;;;;;;;;;;;;;6204200;28;20018;-75
2021/09/17 01:44:03;;;;;;;;;;;;;;;;;;6205719;28;20080;-78
2021/09/17 01:47:04;;;;;;;;;;;;;;;;;;6195697;28;20053;-75
2021/09/17 01:50:07;;;;;;;;;;;;;;;;;;6205987;28;20072;-77
2021/09/17 01:53:09;;;;;;;;;;;;;;;;;;6201559;28;20483;-75
2021/09/17 01:56:11;;;;;;;;;;;;;;;;;;6201034;28;20482;-76
2021/09/17 01:59:12;;;;;;;;;;;;;;;;;;6201830;28;20017;-75
2021/09/17 02:02:14;;;;;;;;;;;;;;;;;;6198241;28;20010;-76
2021/09/17 02:05:15;;;;;;;;;;;;;;;;;;6199722;28;20107;-77
2021/09/17 02:08:18;;;;;;;;;;;;;;;;;;6201494;28;20081;-76
2021/09/17 02:11:19;;;;;;;;;;;;;;;;;;6210617;28;20049;-75
2021/09/17 02:14:21;;;;;;;;;;;;;;;;;;6208501;28;20553;-76
2021/09/17 02:17:24;;;;;;;;;;;;;;;;;;6201413;28;20026;-75
2021/09/17 02:20:26;;;;;;;;;;;;;;;;;;6203737;28;20036;-76
2021/09/17 02:23:28;;;;;;;;;;;;;;;;;;6198371;28;20115;-75
2021/09/17 02:26:30;;;;;;;;;;;;;;;;;;6196010;28;20049;-74
2021/09/17 02:29:31;;;;;;;;;;;;;;;;;;6221447;28;20528;-75
2021/09/17 02:32:33;;;;;;;;;;;;;;;;;;6194354;28;20021;-75
2021/09/17 02:35:34;;;;;;;;;;;;;;;;;;6198108;28;20056;-76
2021/09/17 02:38:37;;;;;;;;;;;;;;;;;;6209447;28;20013;-75
2021/09/17 02:41:39;;;;;;;;;;;;;;;;;;6200618;28;20493;-75
2021/09/17 02:44:41;;;;;;;;;;;;;;;;;;6206813;28;20025;-75
2021/09/17 02:47:42;;;;;;;;;;;;;;;;;;6191643;28;20014;-77
2021/09/17 02:50:44;;;;;;;;;;;;;;;;;;6198496;28;20800;-75
2021/09/17 02:53:46;;;;;;;;;;;;;;;;;;6204657;28;20068;-75
2021/09/17 02:56:48;;;;;;;;;;;;;;;;;;6196426;28;20100;-75
2021/09/17 02:59:49;;;;;;;;;;;;;;;;;;6205688;28;20018;-74
2021/09/17 03:02:51;;;;;;;;;;;;;;;;;;6191248;28;23291;-74
2021/09/17 03:05:52;;;;;;;;;;;;;;;;;;6200148;28;20104;-75
2021/09/17 03:08:55;;;;;;;;;;;;;;;;;;6197587;28;20050;-74
2021/09/17 03:11:57;;;;;;;;;;;;;;;;;;6201057;28;20049;-74
2021/09/17 03:14:58;;;;;;;;;;;;;;;;;;6204097;28;20398;-74
2021/09/17 03:17:59;;;;;;;;;;;;;;;;;;6195526;28;20099;-74
2021/09/17 03:21:01;;;;;;;;;;;;;;;;;;6194624;28;20103;-76
2021/09/17 03:24:04;;;;;;;;;;;;;;;;;;6205154;28;22567;-75
2021/09/17 03:27:06;;;;;;;;;;;;;;;;;;6198462;28;20013;-74
2021/09/17 03:30:08;;;;;;;;;;;;;;;;;;6209101;28;20081;-75
2021/09/17 03:33:11;;;;;;;;;;;;;;;;;;6195081;28;20018;-74
2021/09/17 03:36:12;;;;;;;;;;;;;;;;;;6196429;28;20474;-75
2021/09/17 03:39:15;;;;;;;;;;;;;;;;;;6207286;28;20112;-76
2021/09/17 03:42:17;;;;;;;;;;;;;;;;;;6202441;28;20536;-76
2021/09/17 03:45:18;;;;;;;;;;;;;;;;;;6199109;28;20018;-76
2021/09/17 03:48:20;;;;;;;;;;;;;;;;;;6199484;28;20017;-76
2021/09/17 03:51:21;;;;;;;;;;;;;;;;;;6202943;28;20037;-73
2021/09/17 03:54:26;;;;;;;;;;;;;;;;;;6210460;28;20077;-74
2021/09/17 03:57:28;;;;;;;;;;;;;;;;;;6201741;28;20022;-73
2021/09/17 04:00:29;;;;;;;;;;;;;;;;;;6210499;28;20018;-76
2021/09/17 04:03:31;;;;;;;;;;;;;;;;;;6203065;28;20501;-75
2021/09/17 04:06:32;;;;;;;;;;;;;;;;;;6201323;28;20022;-73
2021/09/17 04:09:35;;;;;;;;;;;;;;;;;;6218222;28;20063;-73
2021/09/17 04:12:37;;;;;;;;;;;;;;;;;;6204347;28;20014;-74
2021/09/17 04:15:38;;;;;;;;;;;;;;;;;;6194433;28;20022;-74
2021/09/17 04:18:40;;;;;;;;;;;;;;;;;;6201731;28;20049;-73
2021/09/17 04:21:41;;;;;;;;;;;;;;;;;;6200984;28;20021;-73
2021/09/17 04:24:44;;;;;;;;;;;;;;;;;;6209366;28;20046;-73
2021/09/17 04:27:45;;;;;;;;;;;;;;;;;;6210075;28;20061;-74
2021/09/17 04:30:47;;;;;;;;;;;;;;;;;;6218628;28;20099;-74
2021/09/17 04:33:48;;;;;;;;;;;;;;;;;;6207494;28;20552;-74
2021/09/17 04:36:49;;;;;;;;;;;;;;;;;;6203931;28;20155;-73
2021/09/17 04:39:52;;;;;;;;;;;;;;;;;;6207526;28;20010;-73
2021/09/17 04:42:54;;;;;;;;;;;;;;;;;;6203143;28;20102;-73
2021/09/17 04:45:55;;;;;;;;;;;;;;;;;;6205676;28;20174;-73
2021/09/17 04:48:57;;;;;;;;;;;;;;;;;;6209411;28;20061;-73
2021/09/17 04:51:58;;;;;;;;;;;;;;;;;;6202930;28;20050;-74
2021/09/17 04:55:01;;;;;;;;;;;;;;;;;;6205536;28;20010;-72
2021/09/17 04:58:03;;;;;;;;;;;;;;;;;;6201545;28;20010;-74
2021/09/17 05:01:04;;;;;;;;;;;;;;;;;;6202282;28;20014;-75
2021/09/17 05:04:05;;;;;;;;;;;;;;;;;;6209842;28;20049;-72
2021/09/17 05:07:07;;;;;;;;;;;;;;;;;;6205124;28;20057;-73
2021/09/17 05:10:10;;;;;;;;;;;;;;;;;;6209897;28;20450;-76
2021/09/17 05:13:12;;;;;;;;;;;;;;;;;;6202732;28;20026;-72
2021/09/17 05:16:13;;;;;;;;;;;;;;;;;;6197425;28;20673;-74
2021/09/17 05:19:14;;;;;;;;;;;;;;;;;;6206026;28;20025;-75
2021/09/17 05:22:16;;;;;;;;;;;;;;;;;;6201999;28;20084;-74
2021/09/17 05:25:19;;;;;;;;;;;;;;;;;;6205922;28;20442;-74
2021/09/17 05:28:20;;;;;;;;;;;;;;;;;;6208863;28;20135;-72
2021/09/17 05:31:22;;;;;;;;;;;;;;;;;;6194394;28;20853;-73
2021/09/17 05:34:23;;;;;;;;;;;;;;;;;;6218556;28;20021;-74
2021/09/17 05:37:25;;;;;;;;;;;;;;;;;;6201612;28;20064;-74
2021/09/17 05:40:27;;;;;;;;;;;;;;;;;;6207011;28;20817;-73
2021/09/17 05:43:29;;;;;;;;;;;;;;;;;;6202402;28;20112;-73
2021/09/17 05:46:30;;;;;;;;;;;;;;;;;;6201606;28;20041;-75
2021/09/17 05:49:32;;;;;;;;;;;;;;;;;;6209331;28;20104;-72
2021/09/17 05:52:33;;;;;;;;;;;;;;;;;;6196380;28;20084;-73
2021/09/17 05:55:36;;;;;;;;;;;;;;;;;;6198997;28;20017;-74
2021/09/17 05:58:37;;;;;;;;;;;;;;;;;;6205999;28;20061;-74
2021/09/17 06:01:39;;;;;;;;;;;;;;;;;;6198294;28;20386;-71
2021/09/17 06:04:40;;;;;;;;;;;;;;;;;;6208600;28;20014;-72
2021/09/17 06:07:42;;;;;;;;;;;;;;;;;;6196330;28;20076;-71
2021/09/17 06:10:45;;;;;;;;;;;;;;;;;;6203639;28;20010;-73
2021/09/17 06:13:46;;;;;;;;;;;;;;;;;;6203018;28;20030;-72
2021/09/17 06:16:48;;;;;;;;;;;;;;;;;;6202099;28;20111;-72
2021/09/17 06:19:49;;;;;;;;;;;;;;;;;;6207616;28;20010;-72
2021/09/17 06:22:53;;;;;;;;;;;;;;;;;;6197144;28;20044;-72
2021/09/17 06:25:56;;;;;;;;;;;;;;;;;;6201237;28;20022;-73
2021/09/17 06:28:59;;;;;;;;;;;;;;;;;;6211781;28;20017;-85
2021/09/17 06:32:01;;;;;;;;;;;;;;;;;;6207090;28;20016;-83
2021/09/17 06:35:03;;;;;;;;;;;;;;;;;;6213876;28;20010;-84
2021/09/17 06:38:05;;;;;;;;;;;;;;;;;;6209314;28;20017;-83
2021/09/17 06:41:08;;;;;;;;;;;;;;;;;;6206702;28;20010;-81
2021/09/17 06:44:09;;;;;;;;;;;;;;;;;;6219831;28;20115;-81
2021/09/17 06:47:11;;;;;;;;;;;;;;;;;;6205245;28;20030;-80
2021/09/17 06:50:13;;;;;;;;;;;;;;;;;;6207813;28;20014;-82
2021/09/17 06:53:15;;;;;;;;;;;;;;;;;;6197476;28;20457;-78
2021/09/17 06:56:17;;;;;;;;;;;;;;;;;;6201761;28;20013;-77
2021/09/17 06:59:19;;;;;;;;;;;;;;;;;;6213238;28;20078;-80
2021/09/17 07:02:20;;;;;;;;;;;;;;;;;;6202053;28;20362;-77
2021/09/17 07:05:22;;;;;;;;;;;;;;;;;;6204411;28;20104;-82
2021/09/17 07:08:23;;;;;;;;;;;;;;;;;;6208481;28;20037;-78
2021/09/17 07:11:27;;;;;;;;;;;;;;;;;;6200244;28;20025;-79
2021/09/17 07:14:28;;;;;;;;;;;;;;;;;;6202474;28;20030;-77
2021/09/17 07:17:30;;;;;;;;;;;;;;;;;;6194986;28;20066;-79
2021/09/17 07:20:31;;;;;;;;;;;;;;;;;;6199444;28;20018;-77
2021/09/17 07:23:33;;;;;;;;;;;;;;;;;;6198084;28;20077;-77
2021/09/17 07:26:36;;;;;;;;;;;;;;;;;;6211099;28;20492;-78
2021/09/17 07:29:37;;;;;;;;;;;;;;;;;;6212422;28;20084;-78
2021/09/17 07:32:39;;;;;;;;;;;;;;;;;;6200044;28;20469;-81
2021/09/17 07:35:40;;;;;;;;;;;;;;;;;;6205804;28;20032;-81
2021/09/17 07:38:41;;;;;;;;;;;;;;;;;;6202887;28;20068;-81
2021/09/17 07:41:44;;;;;;;;;;;;;;;;;;6197787;28;20485;-83
2021/09/17 07:44:46;;;;;;;;;;;;;;;;;;6205896;28;20363;-81
2021/09/17 07:47:47;;;;;;;;;;;;;;;;;;6192616;28;20013;-80
2021/09/17 07:50:49;;;;;;;;;;;;;;;;;;6201467;28;20738;-79
2021/09/17 07:53:50;;;;;;;;;;;;;;;;;;6203706;28;20109;-79
2021/09/17 07:56:53;;;;;;;;;;;;;;;;;;6201277;28;20093;-78
2021/09/17 07:59:54;;;;;;;;;;;;;;;;;;6227080;28;20094;-78
2021/09/17 08:02:56;;;;;;;;;;;;;;;;;;6214541;28;20018;-78
2021/09/17 08:05:57;;;;;;;;;;;;;;;;;;6216699;28;20064;-77
2021/09/17 08:08:59;;;;;;;;;;;;;;;;;;6204936;28;20068;-77
2021/09/17 08:12:02;;;;;;;;;;;;;;;;;;6197689;28;20044;-77
2021/09/17 08:15:04;;;;;;;;;;;;;;;;;;6200777;28;20060;-74
2021/09/17 08:18:06;;;;;;;;;;;;;;;;;;6190985;28;20061;-75
2021/09/17 08:21:07;;;;;;;;;;;;;;;;;;6193921;28;20010;-75
2021/09/17 08:24:13;;;;;;;;;;;;;;;;;;6202100;28;20017;-75
2021/09/17 08:27:16;;;;;;;;;;;;;;;;;;6190902;28;20161;-76
2021/09/17 08:30:18;;;;;;;;;;;;;;;;;;6202417;28;20021;-76
2021/09/17 08:33:19;;;;;;;;;;;;;;;;;;6193068;28;20413;-77
2021/09/17 08:36:21;;;;;;;;;;;;;;;;;;6194346;28;20017;-74
2021/09/17 08:39:22;;;;;;;;;;;;;;;;;;6207158;28;20462;-75
2021/09/17 08:42:25;;;;;;;;;;;;;;;;;;6210566;28;20032;-74
2021/09/17 08:45:27;;;;;;;;;;;;;;;;;;6224359;28;20099;-76
2021/09/17 08:48:29;;;;;;;;;;;;;;;;;;6223347;28;20021;-76
2021/09/17 08:51:30;;;;;;;;;;;;;;;;;;6217262;28;20464;-74
2021/09/17 08:54:32;;;;;;;;;;;;;;;;;;6229820;28;20018;-73
2021/09/17 08:57:34;;;;;;;;;;;;;;;;;;6217942;28;20014;-74
2021/09/17 09:00:40;;;;;;;;;;;;;;;;;;6223050;28;20127;-74
2021/09/17 09:03:41;;;;;;;;;;;;;;;;;;6220227;28;20835;-75
2021/09/17 09:06:46;;;;;;;;;;;;;;;;;;6217318;28;20013;-77
2021/09/17 09:09:47;;;;;;;;;;;;;;;;;;6230066;28;20013;-74
2021/09/17 09:12:50;;;;;;;;;;;;;;;;;;6222330;28;20014;-76
2021/09/17 09:15:52;;;;;;;;;;;;;;;;;;6225428;28;20045;-76
2021/09/17 09:18:53;;;;;;;;;;;;;;;;;;6226225;28;20331;-74
2021/09/17 09:21:55;;;;;;;;;;;;;;;;;;6229691;28;20091;-74
2021/09/17 09:24:57;;;;;;;;;;;;;;;;;;6239267;28;20147;-73
2021/09/17 09:28:11;;;;;;;;;;;;;;;;;;6225105;28;20056;-73
2021/09/17 09:31:13;;;;;;;;;;;;;;;;;;6221742;28;20014;-74
2021/09/17 09:34:15;;;;;;;;;;;;;;;;;;6226765;28;20095;-76
2021/09/17 09:37:17;;;;;;;;;;;;;;;;;;6219192;28;20061;-77
2021/09/17 09:40:19;;;;;;;;;;;;;;;;;;6225505;28;20488;-76
2021/09/17 09:43:27;;;;;;;;;;;;;;;;;;6223455;28;20068;-75
2021/09/17 09:46:30;;;;;;;;;;;;;;;;;;6224356;28;20080;-74
2021/09/17 09:49:31;;;;;;;;;;;;;;;;;;6230833;28;20684;-74
2021/09/17 09:52:33;;;;;;;;;;;;;;;;;;6223335;28;20060;-75
2021/09/17 09:55:34;;;;;;;;;;;;;;;;;;6225044;28;20945;-76
2021/09/17 09:58:37;;;;;;;;;;;;;;;;;;6227274;28;20107;-75
2021/09/17 10:01:40;;;;;;;;;;;;;;;;;;6218030;28;20042;-75
2021/09/17 10:04:41;;;;;;;;;;;;;;;;;;6228391;28;20124;-74
2021/09/17 10:07:43;;;;;;;;;;;;;;;;;;6219596;28;20381;-74
2021/09/17 10:10:45;;;;;;;;;;;;;;;;;;6221006;28;20010;-75
2021/09/17 10:13:48;;;;;;;;;;;;;;;;;;6224080;28;20123;-74
2021/09/17 10:16:49;;;;;;;;;;;;;;;;;;6218457;28;20024;-74
2021/09/17 10:19:51;;;;;;;;;;;;;;;;;;6221166;28;20049;-75
2021/09/17 10:22:53;;;;;;;;;;;;;;;;;;6223991;28;20014;-73
2021/09/17 10:25:58;;;;;;;;;;;;;;;;;;6224639;28;20043;-79
2021/09/17 10:29:05;;;;;;;;;;;;;;;;;;6241735;28;20086;-81
2021/09/17 10:32:07;;;;;;;;;;;;;;;;;;6225510;28;20523;-82
2021/09/17 10:35:11;;;;;;;;;;;;;;;;;;6227509;28;20016;-85
2021/09/17 10:38:17;;;;;;;;;;;;;;;;;;6228711;28;20022;-82
2021/09/17 10:41:18;;;;;;;;;;;;;;;;;;6235659;28;20025;-81
2021/09/17 10:44:21;;;;;;;;;;;;;;;;;;6232365;28;20017;-81
2021/09/17 10:47:38;;;;;;;;;;;;;;;;;;6231817;28;20068;-81
2021/09/17 10:51:00;;;;;;;;;;;;;;;;;;6219015;28;20025;-81
2021/09/17 10:54:03;;;;;;;;;;;;;;;;;;6228255;28;20010;-81
2021/09/17 10:57:06;;;;;;;;;;;;;;;;;;6231079;28;20013;-79
2021/09/17 11:00:10;;;;;;;;;;;;;;;;;;6238671;28;20036;-85
2021/09/17 11:03:11;;;;;;;;;;;;;;;;;;6223717;28;20020;-80
2021/09/17 11:06:30;;;;;;;;;;;;;;;;;;6225051;28;20009;-81
2021/09/17 11:09:42;;;;;;;;;;;;;;;;;;6240632;28;20361;-82
2021/09/17 11:12:43;;;;;;;;;;;;;;;;;;6238703;28;20018;-80
2021/09/17 11:15:46;;;;;;;;;;;;;;;;;;6231583;28;20035;-86
2021/09/17 11:18:57;;;;;;;;;;;;;;;;;;6225729;28;20420;-84
2021/09/17 11:22:00;;;;;;;;;;;;;;;;;;6224902;28;20072;-83
2021/09/17 11:25:05;;;;;;;;;;;;;;;;;;6232107;28;20540;-83
2021/09/17 11:28:07;;;;;;;;;;;;;;;;;;6219394;28;20022;-82
2021/09/17 11:31:11;;;;;;;;;;;;;;;;;;6233019;28;20018;-82
2021/09/17 11:34:13;;;;;;;;;;;;;;;;;;6237246;28;20096;-84
2021/09/17 11:37:14;;;;;;;;;;;;;;;;;;6236079;28;20017;-83
2021/09/17 11:40:16;;;;;;;;;;;;;;;;;;6236867;28;20013;-86
2021/09/17 11:43:18;;;;;;;;;;;;;;;;;;6236663;28;20977;-85
2021/09/17 11:46:26;;;;;;;;;;;;;;;;;;6243116;28;20025;-84
2021/09/17 11:49:28;;;;;;;;;;;;;;;;;;6234611;28;20021;-85
2021/09/17 11:52:29;;;;;;;;;;;;;;;;;;6238501;28;20040;-88
2021/09/17 11:55:31;;;;;;;;;;;;;;;;;;6234617;28;20021;-90
2021/09/17 11:58:40;;;;;;;;;;;;;;;;;;6235980;28;20022;-84
2021/09/17 12:01:43;;;;;;;;;;;;;;;;;;6219741;28;20026;-84
2021/09/17 12:04:46;;;;;;;;;;;;;;;;;;6229260;28;20018;-84
2021/09/17 12:07:49;;;;;;;;;;;;;;;;;;6232357;28;20381;-84
2021/09/17 12:10:58;;;;;;;;;;;;;;;;;;6239737;28;20128;-85
2021/09/17 12:14:01;;;;;;;;;;;;;;;;;;6238156;28;20013;-82
2021/09/17 12:17:05;;;;;;;;;;;;;;;;;;6224717;28;20017;-84
2021/09/17 12:20:07;;;;;;;;;;;;;;;;;;6224955;28;20009;-89
2021/09/17 12:23:09;;;;;;;;;;;;;;;;;;6227609;28;20021;-84
2021/09/17 12:26:11;;;;;;;;;;;;;;;;;;6239412;28;20010;-84
2021/09/17 12:29:12;;;;;;;;;;;;;;;;;;6232724;28;20013;-82
2021/09/17 12:32:16;;;;;;;;;;;;;;;;;;6228082;28;20506;-89
2021/09/17 12:35:17;;;;;;;;;;;;;;;;;;6242760;28;20021;-88
2021/09/17 12:38:19;;;;;;;;;;;;;;;;;;6230007;28;20504;-82
2021/09/17 12:41:21;;;;;;;;;;;;;;;;;;6243242;28;20041;-83
2021/09/17 12:44:22;;;;;;;;;;;;;;;;;;6237772;28;20444;-82
2021/09/17 12:47:26;;;;;;;;;;;;;;;;;;6229861;28;20024;-83
2021/09/17 12:50:28;;;;;;;;;;;;;;;;;;6238192;28;20440;-78
2021/09/17 12:53:32;;;;;;;;;;;;;;;;;;6231970;28;20018;-79
2021/09/17 12:56:34;;;;;;;;;;;;;;;;;;6226098;28;20060;-79
2021/09/17 12:59:35;;;;;;;;;;;;;;;;;;6231783;28;20052;-79
2021/09/17 13:02:38;;;;;;;;;;;;;;;;;;6221341;28;20020;-77
2021/09/17 13:05:41;;;;;;;;;;;;;;;;;;6225890;28;20104;-78
2021/09/17 13:08:42;;;;;;;;;;;;;;;;;;6237574;28;20014;-80
2021/09/17 13:11:44;;;;;;;;;;;;;;;;;;6227197;28;20024;-80
2021/09/17 13:14:45;;;;;;;;;;;;;;;;;;6238706;28;20014;-80
2021/09/17 13:17:48;;;;;;;;;;;;;;;;;;6226383;28;20020;-80
2021/09/17 13:20:50;;;;;;;;;;;;;;;;;;6232295;28;20009;-81
2021/09/17 13:23:51;;;;;;;;;;;;;;;;;;6229998;28;20020;-81
2021/09/17 13:26:53;;;;;;;;;;;;;;;;;;6226005;28;20025;-81
2021/09/17 13:29:54;;;;;;;;;;;;;;;;;;6238502;28;20208;-81
2021/09/17 13:32:57;;;;;;;;;;;;;;;;;;6221307;28;20064;-80
2021/09/17 13:35:59;;;;;;;;;;;;;;;;;;6223320;28;20037;-80
2021/09/17 13:39:00;;;;;;;;;;;;;;;;;;6235815;28;20539;-80
2021/09/17 13:42:02;;;;;;;;;;;;;;;;;;6233395;28;20009;-80
2021/09/17 13:45:04;;;;;;;;;;;;;;;;;;6237672;28;20021;-80
2021/09/17 13:48:07;;;;;;;;;;;;;;;;;;6216639;28;20636;-80
2021/09/17 13:51:08;;;;;;;;;;;;;;;;;;6217026;28;20018;-80
2021/09/17 13:54:10;;;;;;;;;;;;;;;;;;6232550;28;20020;-80
2021/09/17 13:57:11;;;;;;;;;;;;;;;;;;6233536;28;20607;-80
2021/09/17 14:00:13;;;;;;;;;;;;;;;;;;6235568;28;20060;-81
2021/09/17 14:03:17;;;;;;;;;;;;;;;;;;6225223;28;20014;-79
2021/09/17 14:06:18;;;;;;;;;;;;;;;;;;6224591;28;20064;-81
2021/09/17 14:09:20;;;;;;;;;;;;;;;;;;6233471;28;20084;-80
2021/09/17 14:12:21;;;;;;;;;;;;;;;;;;6230468;28;20010;-81
2021/09/17 14:15:23;;;;;;;;;;;;;;;;;;6234782;28;20021;-80
2021/09/17 14:18:26;;;;;;;;;;;;;;;;;;6227726;28;20032;-80
2021/09/17 14:21:27;;;;;;;;;;;;;;;;;;6241241;28;20017;-80
2021/09/17 14:24:29;;;;;;;;;;;;;;;;;;6238739;28;20060;-80
2021/09/17 14:27:30;;;;;;;;;;;;;;;;;;6221430;28;20017;-80
2021/09/17 14:30:31;;;;;;;;;;;;;;;;;;6230068;28;21208;-81
2021/09/17 14:33:34;;;;;;;;;;;;;;;;;;6226473;28;20041;-80
2021/09/17 14:36:37;;;;;;;;;;;;;;;;;;6227365;28;20369;-80
2021/09/17 14:39:38;;;;;;;;;;;;;;;;;;6230955;28;20033;-80
2021/09/17 14:42:40;;;;;;;;;;;;;;;;;;6219919;28;20398;-78
2021/09/17 14:45:41;;;;;;;;;;;;;;;;;;6220481;28;20749;-79
2021/09/17 14:48:44;;;;;;;;;;;;;;;;;;6221466;28;20457;-79
2021/09/17 14:51:45;;;;;;;;;;;;;;;;;;6221593;28;20497;-78
2021/09/17 14:54:47;;;;;;;;;;;;;;;;;;6237861;28;20018;-78
2021/09/17 14:57:48;;;;;;;;;;;;;;;;;;6227172;28;20029;-78
2021/09/17 15:00:50;;;;;;;;;;;;;;;;;;6219734;28;20017;-78
2021/09/17 15:03:53;;;;;;;;;;;;;;;;;;6225772;28;20018;-78
2021/09/17 15:06:55;;;;;;;;;;;;;;;;;;6226916;28;20018;-78
2021/09/17 15:09:56;;;;;;;;;;;;;;;;;;6231112;28;20032;-78
2021/09/17 15:12:59;;;;;;;;;;;;;;;;;;6232079;28;20013;-78
2021/09/17 15:16:01;;;;;;;;;;;;;;;;;;6217833;28;20458;-78
2021/09/17 15:19:03;;;;;;;;;;;;;;;;;;6217445;28;20021;-78
2021/09/17 15:22:05;;;;;;;;;;;;;;;;;;6226518;28;20014;-77
2021/09/17 15:25:07;;;;;;;;;;;;;;;;;;6241547;28;20017;-78
2021/09/17 15:28:09;;;;;;;;;;;;;;;;;;6227179;28;20013;-78
2021/09/17 15:31:10;;;;;;;;;;;;;;;;;;6228578;28;20392;-78
2021/09/17 15:34:13;;;;;;;;;;;;;;;;;;6239896;28;20024;-78
2021/09/17 15:37:15;;;;;;;;;;;;;;;;;;6229328;28;20017;-78
2021/09/17 15:40:16;;;;;;;;;;;;;;;;;;6232785;28;20014;-78
2021/09/17 15:43:18;;;;;;;;;;;;;;;;;;6222151;28;20076;-78
2021/09/17 15:46:20;;;;;;;;;;;;;;;;;;6230091;28;20025;-78
2021/09/17 15:49:23;;;;;;;;;;;;;;;;;;6230822;28;20016;-78
2021/09/17 15:52:25;;;;;;;;;;;;;;;;;;6228963;28;20014;-78
2021/09/17 15:55:26;;;;;;;;;;;;;;;;;;6222417;28;20013;-78
2021/09/17 15:58:28;;;;;;;;;;;;;;;;;;6229005;28;20026;-78
2021/09/17 16:01:29;;;;;;;;;;;;;;;;;;6224467;28;20012;-78
2021/09/17 16:04:32;;;;;;;;;;;;;;;;;;6237301;28;20013;-78
2021/09/17 16:07:34;;;;;;;;;;;;;;;;;;6225840;28;20093;-78
2021/09/17 16:10:35;;;;;;;;;;;;;;;;;;6225565;28;20021;-78
2021/09/17 16:13:37;;;;;;;;;;;;;;;;;;6235434;28;20022;-78
2021/09/17 16:16:38;;;;;;;;;;;;;;;;;;6218370;28;20122;-78
2021/09/17 16:19:41;;;;;;;;;;;;;;;;;;6242095;28;20476;-78
2021/09/17 16:22:42;;;;;;;;;;;;;;;;;;6236089;28;20049;-78
2021/09/17 16:25:44;;;;;;;;;;;;;;;;;;6225972;28;20017;-78
2021/09/17 16:28:45;;;;;;;;;;;;;;;;;;6242491;28;20036;-78
2021/09/17 16:31:47;;;;;;;;;;;;;;;;;;6236251;28;20020;-78
2021/09/17 16:34:50;;;;;;;;;;;;;;;;;;6231822;28;20099;-78
2021/09/17 16:37:51;;;;;;;;;;;;;;;;;;6238688;28;20014;-78
2021/09/17 16:40:52;;;;;;;;;;;;;;;;;;6241380;28;20013;-78
2021/09/17 16:43:54;;;;;;;;;;;;;;;;;;6248036;28;20010;-78
2021/09/17 16:46:58;;;;;;;;;;;;;;;;;;6236250;28;20022;-78
2021/09/17 16:50:00;;;;;;;;;;;;;;;;;;6240901;28;20076;-78
2021/09/17 16:53:02;;;;;;;;;;;;;;;;;;6236576;28;20013;-78
2021/09/17 16:56:03;;;;;;;;;;;;;;;;;;6223892;28;20057;-78
2021/09/17 16:59:05;;;;;;;;;;;;;;;;;;6239067;28;20013;-78
2021/09/17 17:02:06;;;;;;;;;;;;;;;;;;6227228;28;20020;-78
2021/09/17 17:05:10;;;;;;;;;;;;;;;;;;6224965;28;20044;-78
2021/09/17 17:08:11;;;;;;;;;;;;;;;;;;6232482;28;20022;-77
2021/09/17 17:11:13;;;;;;;;;;;;;;;;;;6229385;28;20013;-78
2021/09/17 17:14:14;;;;;;;;;;;;;;;;;;6233468;28;20068;-77
2021/09/17 17:17:16;;;;;;;;;;;;;;;;;;6210383;28;20132;-78
2021/09/17 17:20:19;;;;;;;;;;;;;;;;;;6239632;28;20095;-81
2021/09/17 17:23:20;;;;;;;;;;;;;;;;;;6238626;28;20053;-81
2021/09/17 17:26:22;;;;;;;;;;;;;;;;;;6223955;28;20013;-82
2021/09/17 17:29:23;;;;;;;;;;;;;;;;;;6233761;28;20021;-81
2021/09/17 17:32:25;;;;;;;;;;;;;;;;;;6226710;28;20018;-81
2021/09/17 17:35:28;;;;;;;;;;;;;;;;;;6228922;28;20014;-81
2021/09/17 17:38:29;;;;;;;;;;;;;;;;;;6234243;28;20422;-80
2021/09/17 17:41:31;;;;;;;;;;;;;;;;;;6230928;28;20021;-81
2021/09/17 17:44:34;;;;;;;;;;;;;;;;;;6237968;28;20017;-81
2021/09/17 17:47:35;;;;;;;;;;;;;;;;;;6220931;28;20014;-81
2021/09/17 17:50:38;;;;;;;;;;;;;;;;;;6224700;28;20024;-78
2021/09/17 17:53:41;;;;;;;;;;;;;;;;;;6238087;28;20018;-78
2021/09/17 17:56:42;;;;;;;;;;;;;;;;;;6225687;28;20017;-78
2021/09/17 17:59:44;;;;;;;;;;;;;;;;;;6234396;28;20325;-76
2021/09/17 18:02:46;;;;;;;;;;;;;;;;;;6228958;28;20029;-77
2021/09/17 18:05:53;;;;;;;;;;;;;;;;;;6230053;28;20010;-77
2021/09/17 18:08:54;;;;;;;;;;;;;;;;;;6238110;28;20123;-75
2021/09/17 18:11:56;;;;;;;;;;;;;;;;;;6227546;28;20017;-76
2021/09/17 18:14:57;;;;;;;;;;;;;;;;;;6238041;28;20025;-76
2021/09/17 18:17:59;;;;;;;;;;;;;;;;;;6230859;28;20476;-77
2021/09/17 18:21:02;;;;;;;;;;;;;;;;;;6231233;28;20020;-81
2021/09/17 18:24:03;;;;;;;;;;;;;;;;;;6234123;28;20025;-77
2021/09/17 18:27:05;;;;;;;;;;;;;;;;;;6232800;28;20021;-77
2021/09/17 18:30:07;;;;;;;;;;;;;;;;;;6230607;28;20619;-78
2021/09/17 18:33:09;;;;;;;;;;;;;;;;;;6224314;28;20053;-77
2021/09/17 18:36:12;;;;;;;;;;;;;;;;;;6209057;28;20033;-77
2021/09/17 18:39:13;;;;;;;;;;;;;;;;;;6206462;28;20052;-76
2021/09/17 18:42:15;;;;;;;;;;;;;;;;;;6212412;28;20021;-75
2021/09/17 18:45:16;;;;;;;;;;;;;;;;;;6203798;28;20065;-76
2021/09/17 18:48:18;;;;;;;;;;;;;;;;;;6203619;28;20481;-76
2021/09/17 18:51:21;;;;;;;;;;;;;;;;;;6204271;28;20053;-77
2021/09/17 18:54:22;;;;;;;;;;;;;;;;;;6219718;28;20496;-75
2021/09/17 18:57:23;;;;;;;;;;;;;;;;;;6213152;28;20061;-77
2021/09/17 19:00:25;;;;;;;;;;;;;;;;;;6202091;28;20018;-75
2021/09/17 19:03:26;;;;;;;;;;;;;;;;;;6207268;28;20416;-74
2021/09/17 19:06:29;;;;;;;;;;;;;;;;;;6206913;28;20409;-75
2021/09/17 19:09:31;;;;;;;;;;;;;;;;;;6205040;28;20104;-80
2021/09/17 19:12:33;;;;;;;;;;;;;;;;;;6201734;28;20018;-75
2021/09/17 19:15:34;;;;;;;;;;;;;;;;;;6206270;28;20022;-76
2021/09/17 19:18:36;;;;;;;;;;;;;;;;;;6238679;28;20020;-75
2021/09/17 19:21:39;;;;;;;;;;;;;;;;;;6225225;28;20431;-75
2021/09/17 19:24:40;;;;;;;;;;;;;;;;;;6213954;28;20633;-75
2021/09/17 19:27:42;;;;;;;;;;;;;;;;;;6205210;28;20014;-76
2021/09/17 19:30:43;;;;;;;;;;;;;;;;;;6207869;28;20164;-76
2021/09/17 19:33:44;;;;;;;;;;;;;;;;;;6213728;28;20068;-75
2021/09/17 19:36:47;;;;;;;;;;;;;;;;;;6201159;28;20155;-75
2021/09/17 19:39:49;;;;;;;;;;;;;;;;;;6207234;28;20559;-75
2021/09/17 19:42:50;;;;;;;;;;;;;;;;;;6202375;28;20009;-75
2021/09/17 19:45:51;;;;;;;;;;;;;;;;;;6201807;28;20064;-75
2021/09/17 19:48:53;;;;;;;;;;;;;;;;;;6209933;28;20100;-76
2021/09/17 19:51:56;;;;;;;;;;;;;;;;;;6198935;28;20091;-76
2021/09/17 19:54:58;;;;;;;;;;;;;;;;;;6204460;28;20100;-76
2021/09/17 19:57:59;;;;;;;;;;;;;;;;;;6192439;28;20018;-76
2021/09/17 20:01:01;;;;;;;;;;;;;;;;;;6201947;28;20013;-75
2021/09/17 20:04:02;;;;;;;;;;;;;;;;;;6203969;28;20160;-76
2021/09/17 20:07:05;;;;;;;;;;;;;;;;;;6199082;28;20017;-75
2021/09/17 20:10:07;;;;;;;;;;;;;;;;;;6206203;28;20024;-76
2021/09/17 20:13:09;;;;;;;;;;;;;;;;;;6203579;28;20200;-75
2021/09/17 20:16:10;;;;;;;;;;;;;;;;;;6200524;28;20524;-75
2021/09/17 20:19:13;;;;;;;;;;;;;;;;;;6204100;28;20029;-75
2021/09/17 20:22:16;;;;;;;;;;;;;;;;;;6201155;28;20438;-76
2021/09/17 20:25:17;;;;;;;;;;;;;;;;;;6221387;28;20009;-75
2021/09/17 20:28:20;;;;;;;;;;;;;;;;;;6202094;28;20104;-75
2021/09/17 20:31:26;;;;;;;;;;;;;;;;;;6204109;28;20010;-76
2021/09/17 20:34:33;;;;;;;;;;;;;;;;;;6205048;28;20041;-77
2021/09/17 20:37:36;;;;;;;;;;;;;;;;;;6207726;28;20010;-76
2021/09/17 20:40:37;;;;;;;;;;;;;;;;;;6208941;28;20245;-76
2021/09/17 20:43:39;;;;;;;;;;;;;;;;;;6209914;28;20032;-77